createdAt,value
2018-04-12T00:00:09.675Z,14.30
2018-04-12T00:02:39.029Z,14.20
2018-04-12T00:05:07.254Z,14.20
2018-04-12T00:07:36.288Z,14.30
2018-04-12T00:10:05.805Z,14.20
2018-04-12T00:12:34.779Z,14.30
2018-04-12T00:15:03.373Z,14.20
2018-04-12T00:17:32.680Z,14.30
2018-04-12T00:20:00.904Z,14.30
2018-04-12T00:22:29.114Z,14.20
2018-04-12T00:24:58.108Z,14.10
2018-04-12T00:27:27.092Z,14.10
2018-04-12T00:30:02.154Z,14.10
2018-04-12T00:32:30.361Z,14.10
2018-04-12T00:34:59.212Z,14.10
2018-04-12T00:37:28.201Z,14.10
2018-04-12T00:39:57.276Z,14.00
2018-04-12T00:42:25.581Z,14.00
2018-04-12T00:44:53.782Z,14.10
2018-04-12T00:47:22.215Z,14.10
2018-04-12T00:49:50.916Z,14.10
2018-04-12T00:52:19.896Z,14.10
2018-04-12T00:54:48.109Z,14.10
2018-04-12T00:57:21.847Z,14.10
2018-04-12T00:59:50.361Z,14.20
2018-04-12T01:02:18.578Z,14.20
2018-04-12T01:04:46.792Z,14.20
2018-04-12T01:07:17.689Z,14.20
2018-04-12T01:09:45.898Z,14.30
2018-04-12T01:12:14.141Z,14.20
2018-04-12T01:14:42.343Z,14.20
2018-04-12T01:17:23.901Z,14.20
2018-04-12T01:19:53.179Z,14.10
2018-04-12T01:22:21.386Z,14.10
2018-04-12T01:24:49.598Z,14.10
2018-04-12T01:27:18.421Z,14.10
2018-04-12T01:29:47.024Z,14.00
2018-04-12T01:32:15.516Z,14.00
2018-04-12T01:34:43.867Z,14.00
2018-04-12T01:37:12.461Z,14.10
2018-04-12T01:39:41.256Z,14.10
2018-04-12T01:42:10.533Z,14.20
2018-04-12T01:44:38.735Z,14.10
2018-04-12T01:47:08.278Z,14.20
2018-04-12T01:49:36.473Z,14.20
2018-04-12T01:52:04.967Z,14.20
2018-04-12T01:54:33.568Z,14.20
2018-04-12T01:57:02.791Z,14.20
2018-04-12T01:59:31.004Z,14.10
2018-04-12T02:01:59.208Z,14.10
2018-04-12T02:04:27.448Z,14.20
2018-04-12T02:06:55.654Z,14.20
2018-04-12T02:09:24.257Z,14.20
2018-04-12T02:11:53.090Z,14.20
2018-04-12T02:14:21.300Z,14.20
2018-04-12T02:16:49.501Z,14.10
2018-04-12T02:19:18.205Z,14.20
2018-04-12T02:21:47.177Z,14.10
2018-04-12T02:24:15.394Z,14.10
2018-04-12T02:26:43.767Z,14.10
2018-04-12T02:29:11.905Z,14.10
2018-04-12T02:31:40.416Z,14.20
2018-04-12T02:34:09.913Z,14.10
2018-04-12T02:36:39.030Z,14.10
2018-04-12T02:39:07.242Z,14.10
2018-04-12T02:41:35.688Z,14.10
2018-04-12T02:44:03.892Z,14.10
2018-04-12T02:46:32.299Z,14.10
2018-04-12T02:49:00.486Z,14.00
2018-04-12T02:51:29.397Z,14.00
2018-04-12T02:53:58.913Z,14.00
2018-04-12T02:56:28.138Z,13.90
2018-04-12T02:58:56.411Z,13.90
2018-04-12T03:01:24.613Z,13.90
2018-04-12T03:03:52.825Z,13.90
2018-04-12T03:06:21.838Z,13.80
2018-04-12T03:08:51.260Z,13.90
2018-04-12T03:11:19.467Z,13.80
2018-04-12T03:13:48.753Z,13.80
2018-04-12T03:16:16.977Z,13.90
2018-04-12T03:18:49.652Z,13.90
2018-04-12T03:21:18.637Z,13.90
2018-04-12T03:23:46.856Z,13.90
2018-04-12T03:26:15.578Z,13.90
2018-04-12T03:28:43.752Z,13.90
2018-04-12T03:31:11.965Z,13.90
2018-04-12T03:33:40.573Z,13.90
2018-04-12T03:36:09.719Z,13.90
2018-04-12T03:38:38.320Z,13.90
2018-04-12T03:41:06.811Z,13.90
2018-04-12T03:43:35.284Z,13.90
2018-04-12T03:46:03.483Z,13.80
2018-04-12T03:48:31.690Z,13.90
2018-04-12T03:51:05.937Z,13.80
2018-04-12T03:53:34.128Z,13.80
2018-04-12T03:56:02.417Z,13.80
2018-04-12T03:58:31.393Z,13.90
2018-04-12T04:00:59.616Z,13.90
2018-04-12T04:03:28.081Z,13.90
2018-04-12T04:05:56.284Z,13.90
2018-04-12T04:08:25.135Z,13.90
2018-04-12T04:10:53.344Z,13.90
2018-04-12T04:13:21.540Z,14.00
2018-04-12T04:16:02.036Z,14.00
2018-04-12T04:18:48.497Z,14.00
2018-04-12T04:21:17.561Z,14.00
2018-04-12T04:23:46.545Z,14.00
2018-04-12T04:26:15.558Z,14.00
2018-04-12T04:28:44.707Z,14.00
2018-04-12T04:31:13.497Z,14.10
2018-04-12T04:33:42.222Z,14.10
2018-04-12T04:36:10.451Z,14.10
2018-04-12T04:38:39.073Z,14.10
2018-04-12T04:41:07.760Z,14.10
2018-04-12T04:43:35.959Z,14.20
2018-04-12T04:46:04.157Z,14.20
2018-04-12T04:48:32.390Z,14.20
2018-04-12T04:51:00.960Z,14.20
2018-04-12T04:53:29.166Z,14.20
2018-04-12T04:55:58.262Z,14.30
2018-04-12T04:58:27.025Z,14.30
2018-04-12T05:00:55.235Z,14.30
2018-04-12T05:03:23.465Z,14.30
2018-04-12T05:05:52.166Z,14.40
2018-04-12T05:08:21.073Z,14.40
2018-04-12T05:10:50.052Z,14.40
2018-04-12T05:13:18.256Z,14.40
2018-04-12T05:15:47.090Z,14.40
2018-04-12T05:18:15.677Z,14.50
2018-04-12T05:20:45.026Z,14.60
2018-04-12T05:23:13.231Z,14.50
2018-04-12T05:25:41.434Z,14.60
2018-04-12T05:28:09.935Z,14.60
2018-04-12T05:30:38.141Z,14.70
2018-04-12T05:33:06.358Z,14.70
2018-04-12T05:35:35.402Z,14.70
2018-04-12T05:38:04.683Z,14.70
2018-04-12T05:40:36.688Z,14.70
2018-04-12T05:43:04.888Z,14.70
2018-04-12T05:45:33.097Z,14.70
2018-04-12T05:48:01.812Z,14.70
2018-04-12T05:50:30.472Z,14.70
2018-04-12T05:52:59.376Z,14.70
2018-04-12T05:55:27.936Z,14.70
2018-04-12T05:57:56.145Z,14.70
2018-04-12T06:00:25.137Z,14.70
2018-04-12T06:02:53.721Z,14.70
2018-04-12T06:05:22.692Z,14.70
2018-04-12T06:07:51.417Z,14.70
2018-04-12T06:10:19.610Z,14.70
2018-04-12T06:12:47.824Z,14.70
2018-04-12T06:15:16.040Z,14.70
2018-04-12T06:17:44.903Z,14.70
2018-04-12T06:20:13.894Z,14.70
2018-04-12T06:22:42.107Z,14.70
2018-04-12T06:25:10.300Z,14.80
2018-04-12T06:27:39.420Z,14.70
2018-04-12T06:30:07.645Z,14.80
2018-04-12T06:32:36.450Z,14.80
2018-04-12T06:35:04.729Z,14.80
2018-04-12T06:37:33.604Z,14.80
2018-04-12T06:40:01.922Z,14.90
2018-04-12T06:42:30.563Z,14.90
2018-04-12T06:44:59.192Z,15.00
2018-04-12T06:47:27.545Z,15.10
2018-04-12T06:49:55.934Z,15.20
2018-04-12T06:52:24.155Z,15.30
2018-04-12T06:54:52.346Z,15.40
2018-04-12T06:57:20.873Z,15.50
2018-04-12T06:59:49.080Z,15.60
2018-04-12T07:02:17.289Z,15.70
2018-04-12T07:04:46.356Z,16.00
2018-04-12T07:07:18.657Z,16.00
2018-04-12T07:09:47.641Z,16.40
2018-04-12T07:12:16.634Z,16.50
2018-04-12T07:14:45.616Z,16.70
2018-04-12T07:17:13.825Z,16.70
2018-04-12T07:19:42.724Z,16.90
2018-04-12T07:22:12.790Z,17.10
2018-04-12T07:24:41.001Z,17.30
2018-04-12T07:27:10.496Z,17.60
2018-04-12T07:29:39.601Z,17.70
2018-04-12T07:32:09.033Z,17.90
2018-04-12T07:34:39.317Z,17.80
2018-04-12T07:37:08.604Z,18.10
2018-04-12T07:39:37.349Z,18.10
2018-04-12T07:42:05.984Z,18.30
2018-04-12T07:44:34.184Z,18.30
2018-04-12T07:47:02.436Z,18.50
2018-04-12T07:49:30.645Z,18.70
2018-04-12T07:51:59.829Z,18.90
2018-04-12T07:54:28.805Z,19.20
2018-04-12T07:56:57.602Z,19.10
2018-04-12T07:59:25.851Z,19.40
2018-04-12T08:01:54.040Z,19.60
2018-04-12T08:04:22.451Z,19.80
2018-04-12T08:06:51.432Z,20.10
2018-04-12T08:09:20.235Z,20.10
2018-04-12T08:11:48.429Z,20.20
2018-04-12T08:14:17.491Z,20.40
2018-04-12T08:16:46.701Z,20.70
2018-04-12T08:19:15.473Z,20.70
2018-04-12T08:21:43.970Z,20.90
2018-04-12T08:24:12.169Z,21.10
2018-04-12T08:26:41.715Z,21.20
2018-04-12T08:29:09.888Z,21.40
2018-04-12T08:31:38.094Z,21.60
2018-04-12T08:34:07.267Z,21.70
2018-04-12T08:36:37.524Z,21.60
2018-04-12T08:39:07.837Z,21.90
2018-04-12T08:41:37.353Z,21.80
2018-04-12T08:44:06.360Z,21.90
2018-04-12T08:46:35.330Z,22.00
2018-04-12T08:49:04.328Z,22.40
2018-04-12T08:51:32.909Z,22.40
2018-04-12T08:54:01.944Z,22.40
2018-04-12T08:56:30.827Z,22.40
2018-04-12T08:58:59.036Z,22.50
2018-04-12T09:01:27.278Z,22.90
2018-04-12T09:03:55.505Z,23.10
2018-04-12T09:06:24.020Z,23.00
2018-04-12T09:08:53.742Z,23.10
2018-04-12T09:11:22.623Z,23.00
2018-04-12T09:13:51.785Z,23.40
2018-04-12T09:16:19.982Z,23.40
2018-04-12T09:18:51.876Z,23.90
2018-04-12T09:21:20.083Z,24.20
2018-04-12T09:23:48.397Z,24.30
2018-04-12T09:26:17.675Z,24.50
2018-04-12T09:28:45.902Z,24.50
2018-04-12T09:31:15.194Z,24.60
2018-04-12T09:33:50.328Z,24.70
2018-04-12T09:36:18.858Z,24.70
2018-04-12T09:38:47.789Z,25.00
2018-04-12T09:41:16.872Z,25.20
2018-04-12T09:43:45.513Z,24.80
2018-04-12T09:46:14.199Z,24.90
2018-04-12T09:48:42.414Z,25.00
2018-04-12T09:51:11.012Z,25.00
2018-04-12T09:53:39.216Z,25.00
2018-04-12T09:56:07.764Z,25.20
2018-04-12T09:58:35.981Z,25.20
2018-04-12T10:01:10.169Z,25.30
2018-04-12T10:03:44.093Z,25.70
2018-04-12T10:06:27.193Z,25.70
2018-04-12T10:09:01.622Z,25.50
2018-04-12T10:11:30.555Z,25.40
2018-04-12T10:13:58.773Z,25.40
2018-04-12T10:16:27.151Z,25.20
2018-04-12T10:18:55.763Z,24.90
2018-04-12T10:21:24.559Z,25.10
2018-04-12T10:23:53.529Z,24.90
2018-04-12T10:26:22.138Z,24.80
2018-04-12T10:28:51.329Z,24.60
2018-04-12T10:31:19.538Z,24.60
2018-04-12T10:33:53.937Z,24.70
2018-04-12T10:36:22.517Z,24.70
2018-04-12T10:38:51.865Z,24.30
2018-04-12T10:41:20.484Z,24.20
2018-04-12T10:43:48.892Z,24.30
2018-04-12T10:46:17.094Z,24.30
2018-04-12T10:48:45.437Z,24.20
2018-04-12T10:51:14.809Z,23.90
2018-04-12T10:53:43.019Z,23.90
2018-04-12T10:56:12.300Z,24.00
2018-04-12T10:58:40.505Z,24.00
2018-04-12T11:01:08.968Z,24.40
2018-04-12T11:03:37.551Z,24.70
2018-04-12T11:06:05.864Z,24.70
2018-04-12T11:08:34.620Z,24.80
2018-04-12T11:11:03.090Z,24.90
2018-04-12T11:13:31.777Z,24.80
2018-04-12T11:16:00.092Z,25.20
2018-04-12T11:18:28.730Z,25.40
2018-04-12T11:20:57.457Z,25.60
2018-04-12T11:23:26.961Z,25.60
2018-04-12T11:25:55.161Z,25.60
2018-04-12T11:28:24.777Z,25.50
2018-04-12T11:30:52.985Z,25.50
2018-04-12T11:33:21.485Z,25.50
2018-04-12T11:35:50.602Z,25.50
2018-04-12T11:38:19.933Z,25.30
2018-04-12T11:40:54.411Z,25.30
2018-04-12T11:43:23.373Z,25.20
2018-04-12T11:45:52.541Z,25.30
2018-04-12T11:48:20.749Z,25.40
2018-04-12T11:50:49.321Z,25.40
2018-04-12T11:53:17.565Z,25.20
2018-04-12T11:55:46.254Z,25.30
2018-04-12T11:58:15.212Z,25.30
2018-04-12T12:00:44.227Z,25.20
2018-04-12T12:03:13.724Z,25.10
2018-04-12T12:05:43.190Z,25.00
2018-04-12T12:08:11.892Z,24.90
2018-04-12T12:10:40.105Z,24.80
2018-04-12T12:13:09.069Z,25.20
2018-04-12T12:15:37.282Z,25.20
2018-04-12T12:18:05.614Z,25.30
2018-04-12T12:20:34.213Z,25.30
2018-04-12T12:23:02.914Z,25.50
2018-04-12T12:25:31.890Z,25.70
2018-04-12T12:28:01.081Z,25.60
2018-04-12T12:30:30.699Z,25.60
2018-04-12T12:32:58.944Z,25.30
2018-04-12T12:35:27.548Z,25.20
2018-04-12T12:37:56.237Z,25.10
2018-04-12T12:40:24.721Z,25.20
2018-04-12T12:42:53.004Z,25.00
2018-04-12T12:45:21.221Z,24.80
2018-04-12T12:47:49.425Z,24.80
2018-04-12T12:50:17.860Z,24.70
2018-04-12T12:52:47.020Z,24.50
2018-04-12T12:55:15.952Z,24.50
2018-04-12T12:57:44.164Z,24.40
2018-04-12T13:00:12.370Z,24.40
2018-04-12T13:02:40.885Z,24.40
2018-04-12T13:05:09.872Z,24.10
2018-04-12T13:07:38.779Z,24.00
2018-04-12T13:10:07.006Z,23.90
2018-04-12T13:12:35.180Z,24.10
2018-04-12T13:15:03.502Z,24.10
2018-04-12T13:17:35.050Z,24.50
2018-04-12T13:20:04.543Z,24.60
2018-04-12T13:22:33.580Z,24.60
2018-04-12T13:25:01.817Z,24.60
2018-04-12T13:27:30.588Z,24.60
2018-04-12T13:29:58.796Z,24.70
2018-04-12T13:32:27.771Z,24.40
2018-04-12T13:34:56.276Z,24.30
2018-04-12T13:37:26.398Z,24.10
2018-04-12T13:39:54.946Z,24.10
2018-04-12T13:42:24.923Z,24.20
2018-04-12T13:44:53.122Z,24.30
2018-04-12T13:47:21.508Z,24.20
2018-04-12T13:49:53.824Z,24.20
2018-04-12T13:52:23.321Z,24.20
2018-04-12T13:54:52.315Z,24.50
2018-04-12T13:57:22.545Z,24.50
2018-04-12T13:59:51.636Z,24.60
2018-04-12T14:02:21.180Z,24.60
2018-04-12T14:04:49.732Z,24.60
2018-04-12T14:07:24.049Z,24.60
2018-04-12T14:09:52.258Z,24.40
2018-04-12T14:12:20.664Z,24.10
2018-04-12T14:14:48.944Z,24.10
2018-04-12T14:17:17.767Z,24.10
2018-04-12T14:19:46.649Z,24.40
2018-04-12T14:22:15.621Z,24.80
2018-04-12T14:24:45.519Z,24.80
2018-04-12T14:27:13.797Z,24.80
2018-04-12T14:29:42.007Z,24.80
2018-04-12T14:32:10.212Z,24.50
2018-04-12T14:34:38.968Z,24.10
2018-04-12T14:37:07.529Z,24.20
2018-04-12T14:39:36.134Z,24.20
2018-04-12T14:42:04.803Z,24.20
2018-04-12T14:44:33.023Z,24.20
2018-04-12T14:47:01.215Z,24.10
2018-04-12T14:49:29.669Z,24.10
2018-04-12T14:51:59.991Z,23.90
2018-04-12T14:54:28.314Z,23.90
2018-04-12T14:56:57.164Z,23.90
2018-04-12T14:59:26.147Z,23.80
2018-04-12T15:01:54.345Z,23.80
2018-04-12T15:04:23.505Z,23.60
2018-04-12T15:06:52.897Z,23.60
2018-04-12T15:09:22.484Z,23.50
2018-04-12T15:11:51.236Z,23.40
2018-04-12T15:14:20.941Z,23.30
2018-04-12T15:16:49.192Z,23.30
2018-04-12T15:19:17.597Z,23.30
2018-04-12T15:21:46.572Z,23.20
2018-04-12T15:24:15.572Z,23.20
2018-04-12T15:26:44.084Z,23.10
2018-04-12T15:29:12.636Z,23.10
2018-04-12T15:31:41.153Z,23.10
2018-04-12T15:34:09.933Z,23.10
2018-04-12T15:36:39.837Z,23.10
2018-04-12T15:39:08.822Z,23.00
2018-04-12T15:41:38.029Z,23.00
2018-04-12T15:44:06.598Z,23.10
2018-04-12T15:46:34.861Z,23.00
2018-04-12T15:49:03.012Z,23.00
2018-04-12T15:51:32.406Z,23.00
2018-04-12T15:54:01.787Z,23.00
2018-04-12T15:56:31.697Z,22.90
2018-04-12T15:59:01.429Z,22.90
2018-04-12T16:01:29.642Z,22.90
2018-04-12T16:03:57.841Z,22.80
2018-04-12T16:06:26.445Z,22.80
2018-04-12T16:08:55.736Z,22.70
2018-04-12T16:11:24.701Z,22.70
2018-04-12T16:13:52.902Z,22.70
2018-04-12T16:16:21.894Z,22.60
2018-04-12T16:18:52.949Z,22.60
2018-04-12T16:21:22.449Z,22.60
2018-04-12T16:23:51.427Z,22.60
2018-04-12T16:26:20.004Z,22.60
2018-04-12T16:28:48.796Z,22.60
2018-04-12T16:31:17.001Z,22.60
2018-04-12T16:33:45.457Z,22.50
2018-04-12T16:36:14.148Z,22.50
2018-04-12T16:38:42.726Z,22.40
2018-04-12T16:41:11.830Z,22.40
2018-04-12T16:43:40.425Z,22.30
2018-04-12T16:46:09.401Z,22.30
2018-04-12T16:48:38.896Z,22.30
2018-04-12T16:51:07.717Z,22.30
2018-04-12T16:53:36.349Z,22.30
2018-04-12T16:56:05.300Z,22.30
2018-04-12T16:58:34.459Z,22.20
2018-04-12T17:01:03.041Z,22.20
2018-04-12T17:03:31.664Z,22.20
2018-04-12T17:06:00.635Z,21.90
2018-04-12T17:08:29.516Z,21.90
2018-04-12T17:10:57.723Z,21.80
2018-04-12T17:13:25.933Z,21.40
2018-04-12T17:15:54.185Z,21.00
2018-04-12T17:18:23.600Z,20.80
2018-04-12T17:20:52.265Z,20.80
2018-04-12T17:23:21.385Z,20.50
2018-04-12T17:25:50.720Z,20.40
2018-04-12T17:28:19.138Z,20.30
2018-04-12T17:30:48.623Z,20.20
2018-04-12T17:33:16.871Z,20.20
2018-04-12T17:35:45.838Z,20.20
2018-04-12T17:38:14.909Z,20.00
2018-04-12T17:40:44.204Z,20.00
2018-04-12T17:43:12.411Z,20.00
2018-04-12T17:45:40.924Z,19.80
2018-04-12T17:48:09.149Z,20.00
2018-04-12T17:50:37.933Z,20.00
2018-04-12T17:53:06.899Z,20.20
2018-04-12T17:55:36.358Z,20.20
2018-04-12T17:58:05.200Z,20.10
2018-04-12T18:00:33.475Z,19.90
2018-04-12T18:03:01.682Z,19.90
2018-04-12T18:05:29.982Z,20.00
2018-04-12T18:07:58.745Z,20.00
2018-04-12T18:10:28.075Z,19.90
2018-04-12T18:12:56.930Z,19.90
2018-04-12T18:15:26.174Z,19.90
2018-04-12T18:17:54.636Z,20.00
2018-04-12T18:20:23.444Z,19.90
2018-04-12T18:22:51.649Z,19.90
2018-04-12T18:25:20.189Z,19.80
2018-04-12T18:27:48.392Z,19.80
2018-04-12T18:30:16.613Z,19.70
2018-04-12T18:32:45.115Z,19.60
2018-04-12T18:35:14.828Z,19.70
2018-04-12T18:37:43.489Z,19.70
2018-04-12T18:40:12.057Z,19.70
2018-04-12T18:42:40.810Z,19.70
2018-04-12T18:45:10.266Z,19.70
2018-04-12T18:47:38.612Z,19.70
2018-04-12T18:50:07.667Z,19.70
2018-04-12T18:52:35.873Z,19.60
2018-04-12T18:55:11.548Z,19.60
2018-04-12T18:57:39.868Z,19.60
2018-04-12T19:00:08.841Z,19.50
2018-04-12T19:02:37.245Z,19.50
2018-04-12T19:05:05.452Z,19.50
2018-04-12T19:07:34.179Z,19.50
2018-04-12T19:10:02.439Z,19.30
2018-04-12T19:12:30.616Z,19.40
2018-04-12T19:14:59.208Z,19.40
2018-04-12T19:17:27.405Z,19.30
2018-04-12T19:19:56.001Z,19.20
2018-04-12T19:22:25.177Z,19.10
2018-04-12T19:24:54.150Z,19.10
2018-04-12T19:27:22.455Z,19.10
2018-04-12T19:29:51.373Z,19.10
2018-04-12T19:32:19.582Z,19.10
2018-04-12T19:34:48.326Z,19.00
2018-04-12T19:37:18.353Z,18.90
2018-04-12T19:39:47.122Z,18.80
2018-04-12T19:42:16.208Z,18.80
2018-04-12T19:44:44.405Z,18.80
2018-04-12T19:47:12.621Z,18.70
2018-04-12T19:49:40.868Z,18.60
2018-04-12T19:52:10.178Z,18.40
2018-04-12T19:54:38.383Z,18.40
2018-04-12T19:57:07.128Z,18.50
2018-04-12T19:59:35.340Z,18.40
2018-04-12T20:02:03.742Z,18.50
2018-04-12T20:04:32.472Z,18.50
2018-04-12T20:07:08.637Z,18.40
2018-04-12T20:09:37.540Z,18.40
2018-04-12T20:12:06.190Z,18.30
2018-04-12T20:14:34.646Z,18.30
2018-04-12T20:17:03.563Z,18.20
2018-04-12T20:19:32.446Z,18.10
2018-04-12T20:22:02.021Z,18.00
2018-04-12T20:24:30.225Z,18.00
2018-04-12T20:26:59.048Z,18.10
2018-04-12T20:29:28.097Z,18.00
2018-04-12T20:31:56.366Z,18.00
2018-04-12T20:34:25.489Z,17.90
2018-04-12T20:36:54.618Z,17.90
2018-04-12T20:39:23.569Z,17.90
2018-04-12T20:41:51.979Z,17.80
2018-04-12T20:44:21.060Z,17.50
2018-04-12T20:46:49.276Z,17.50
2018-04-12T20:49:18.061Z,17.40
2018-04-12T20:51:46.600Z,17.40
2018-04-12T20:54:14.809Z,17.20
2018-04-12T20:56:43.688Z,17.10
2018-04-12T20:59:12.655Z,17.20
2018-04-12T21:01:47.683Z,17.10
2018-04-12T21:04:16.512Z,17.20
2018-04-12T21:06:45.480Z,17.30
2018-04-12T21:09:14.177Z,17.30
2018-04-12T21:11:42.384Z,17.20
2018-04-12T21:14:11.060Z,17.20
2018-04-12T21:16:40.024Z,17.20
2018-04-12T21:19:16.421Z,17.10
2018-04-12T21:21:44.633Z,17.10
2018-04-12T21:24:12.840Z,17.00
2018-04-12T21:26:41.437Z,17.00
2018-04-12T21:29:09.990Z,16.90
2018-04-12T21:31:38.409Z,16.80
2018-04-12T21:34:07.372Z,16.60
2018-04-12T21:36:39.685Z,16.60
2018-04-12T21:39:09.164Z,16.60
2018-04-12T21:41:37.672Z,16.60
2018-04-12T21:44:06.639Z,16.50
2018-04-12T21:46:34.836Z,16.50
2018-04-12T21:49:03.937Z,16.30
2018-04-12T21:51:33.356Z,16.30
2018-04-12T21:54:01.565Z,16.30
2018-04-12T21:56:30.191Z,16.30
2018-04-12T21:58:59.156Z,16.20
2018-04-12T22:01:27.442Z,16.20
2018-04-12T22:03:55.684Z,16.10
2018-04-12T22:06:24.100Z,16.00
2018-04-12T22:08:53.228Z,16.00
2018-04-12T22:11:22.188Z,15.90
2018-04-12T22:13:51.185Z,15.80
2018-04-12T22:16:19.796Z,15.80
2018-04-12T22:18:54.101Z,15.80
2018-04-12T22:21:22.545Z,15.60
2018-04-12T22:23:51.412Z,15.60
2018-04-12T22:26:20.996Z,15.50
2018-04-12T22:28:50.274Z,15.40
2018-04-12T22:31:18.525Z,15.40
2018-04-12T22:33:47.616Z,15.30
2018-04-12T22:36:16.717Z,15.30
2018-04-12T22:38:45.315Z,15.10
2018-04-12T22:41:13.832Z,15.00
2018-04-12T22:43:42.792Z,15.10
2018-04-12T22:46:11.467Z,15.10
2018-04-12T22:48:39.681Z,15.30
2018-04-12T22:51:08.774Z,15.30
2018-04-12T22:53:36.984Z,15.30
2018-04-12T22:56:05.721Z,15.30
2018-04-12T22:58:33.932Z,15.20
2018-04-12T23:01:02.994Z,15.20
2018-04-12T23:03:31.581Z,15.20
2018-04-12T23:06:00.604Z,15.20
2018-04-12T23:08:30.314Z,15.20
2018-04-12T23:10:59.091Z,15.20
2018-04-12T23:13:29.437Z,15.20
2018-04-12T23:15:57.635Z,15.20
2018-04-12T23:18:26.290Z,15.10
2018-04-12T23:20:55.976Z,15.10
2018-04-12T23:23:25.040Z,15.10
2018-04-12T23:26:00.240Z,15.20
2018-04-12T23:28:29.745Z,15.20
2018-04-12T23:30:58.725Z,15.10
2018-04-12T23:33:27.107Z,15.10
2018-04-12T23:35:56.596Z,15.10
2018-04-12T23:38:25.708Z,15.00
2018-04-12T23:40:55.215Z,15.00
2018-04-12T23:43:24.915Z,15.00
2018-04-12T23:45:53.810Z,15.00
2018-04-12T23:48:22.022Z,15.10
2018-04-12T23:50:51.050Z,15.00
2018-04-12T23:53:19.260Z,14.90
2018-04-12T23:55:47.465Z,14.90
2018-04-12T23:58:16.134Z,14.90
